Portada
METAR-TAF:

METAR-TAF

Aeroports :

Daejeon, Corea del Sud

latitud: 36-18N, longitud: 127-24E, altitud: 77 m

Observació

L'informe es va fer fa 41 minuts, a les 16:05 UTC
Vent 1 kt del Est
Temperatura 19°C
Humitat 94%
Pressió 1009 hPa
Visibilitat: 6000 m
Núvols disperses a una alçada de 1000 ft
Cel ennuvolat a una alçada de 20000 ft
boirina

METAR: RKTF 051605Z 10001KT 6000 BR SCT010 BKN200 19/18 A2980 RMK CIG200

Hora: 01:46 (16:46 UTC)


TAF: manca

Observacions i pronòstics meteorològics de més de 4000 aeroports (METAR i TAF).

Les estacions disponibles són els punts grocs i vermells al mapa.

Posi el ratolí al punt desitjat per veure el nom de l'estació.

Feu clic per veure les observacions i els pronòstics meteorològics.

Per canviar el mapa: feu clic els botons verds amb una creu de color negre per apropar; al botó verd amb un guió per allunyar la imatge; o en les fletxes verdes per a mapes adjacents.


METAR-TAF: